Latest Coastal Weather Observations for Swan Island

IDT60701

Issued at 11:52 am EST Sunday 5 July 2020 (issued every 10 minutes, with the page automatically refreshed every 10 minutes)

About coastal observations | Map of coastal stations | Coastal observations for TAS | Marine services | Other Formats
Station Details ID: 092123 Name: SWAN ISLAND Lat: -40.73 Lon: 148.12 Height: 15.0 m
Data from the previous 72 hours. | See also: Recent months at Swan Island
Date/Time
EST
Wind Sea
Height
m
Swell Vis
km
Cloud Weather Temp
°C
Press
hPa
Rain since
9am
mm
Dir  Spd
kts
Gust
kts
Height
m
Period
s
Dir
05/11:30am W 11 14 - - - - - - - 14.0 1020.2 0.0
05/11:00am W 10 14 - - - - - - - 13.9 1020.3 0.0
05/10:30am W 10 13 - - - - - - - 12.9 1020.2 0.0
05/10:00am W 10 15 - - - - - - - 12.2 1020.0 0.0
05/09:30am W 9 11 - - - - - - - 11.7 1019.7 0.0
05/09:00am W 8 12 - - - - - - - 11.1 1019.6 0.0
05/08:30am W 10 15 - - - - - - - 10.5 1019.3 0.0
05/08:00am WSW 7 11 - - - - - - - 9.7 1019.2 0.0
05/07:30am WSW 7 11 - - - - - - - 9.4 1018.8 0.0
05/07:00am WSW 8 13 - - - - - - - 9.5 1018.4 0.0
05/06:30am WSW 8 12 - - - - - - - 9.3 1017.8 0.0
05/06:00am WSW 7 11 - - - - - - - 9.4 1017.6 0.0
05/05:30am WSW 8 13 - - - - - - - 9.5 1017.5 0.0
05/05:00am WSW 8 11 - - - - - - - 9.5 1017.2 0.0
05/04:30am W 7 12 - - - - - - - 9.6 1017.0 0.0
05/04:00am W 7 11 - - - - - - - 9.5 1016.9 0.0
05/03:30am WSW 7 10 - - - - - - - 9.5 1017.4 0.0
05/03:00am WSW 8 10 - - - - - - - 9.6 1017.4 0.0
05/02:30am WSW 8 13 - - - - - - - 9.6 1017.4 0.0
05/02:00am WSW 11 15 - - - - - - - 10.0 1017.4 0.0
05/01:30am WSW 11 15 - - - - - - - 10.2 1017.3 0.0
05/01:00am WSW 11 15 - - - - - - - 10.4 1017.0 0.0
05/12:30am WSW 11 18 - - - - - - - 10.8 1017.0 0.0
05/12:00am W 9 13 - - - - - - - 10.9 1016.9 0.0
 
Date/Time
EST
Wind Sea
Height
m
Swell Vis
km
Cloud Weather Temp
°C
Press
hPa
Rain since
9am
mm
Dir  Spd
kts
Gust
kts
Height
m
Period
s
Dir
04/11:30pm WSW 12 19 - - - - - - - 10.8 1016.9 0.0
04/11:00pm WSW 9 16 - - - - - - - 10.8 1016.7 0.0
04/10:30pm WSW 11 19 - - - - - - - 11.2 1016.5 0.0
04/10:00pm WSW 11 17 - - - - - - - 11.3 1016.4 0.0
04/09:30pm WSW 13 22 - - - - - - - 11.5 1015.9 0.0
04/09:00pm WSW 12 19 - - - - - - - 11.7 1015.6 0.0
04/08:30pm WSW 13 21 - - - - - - - 11.7 1015.1 0.0
04/08:00pm WSW 14 22 - - - - - - - 11.7 1014.8 0.0
04/07:30pm WSW 14 22 - - - - - - - 11.7 1014.7 0.0
04/07:00pm WSW 14 22 - - - - - - - 11.7 1014.5 0.0
04/06:30pm WSW 13 21 - - - - - - - 11.7 1014.3 0.0
04/06:00pm WSW 14 22 - - - - - - - 11.9 1013.9 0.0
04/05:30pm WSW 11 20 - - - - - - - 11.8 1013.7 0.0
04/05:00pm WSW 12 20 - - - - - - - 11.9 1013.5 0.0
04/04:30pm WSW 13 19 - - - - - - - 12.0 1013.3 0.0
04/04:00pm WSW 9 13 - - - - - - - 12.0 1013.2 0.0
04/03:30pm W 10 15 - - - - - - - 12.6 1013.1 0.0
04/03:00pm W 12 19 - - - - - - - 11.9 1013.1 0.0
04/02:30pm W 14 22 - - - - - - - 12.0 1012.7 0.0
04/02:00pm W 14 22 - - - - - - - 11.7 1012.7 0.0
04/01:30pm W 13 18 - - - - - - - 11.2 1012.8 0.0
04/01:00pm W 10 16 - - - - - - - 11.5 1013.4 0.0
04/12:30pm W 19 23 - - - - - - - 11.8 1013.4 0.0
04/12:00pm WNW 12 18 - - - - - - - 11.1 1013.8 0.0
04/11:30am WNW 15 19 - - - - - - - 10.7 1014.3 0.0
04/11:00am WNW 11 18 - - - - - - - 11.3 1015.2 0.0
04/10:30am WNW 13 20 - - - - - - - 11.3 1015.6 0.0
04/10:00am WNW 13 20 - - - - - - - 10.4 1015.5 0.0
04/09:30am WNW 11 18 - - - - - - - 10.2 1015.9 0.0
04/09:00am W 12 17 - - - - - - - 9.3 1016.0 0.0
04/08:30am W 9 14 - - - - - - - 8.3 1015.9 0.0
04/08:00am W 7 11 - - - - - - - 7.5 1016.1 0.0
04/07:30am WSW 8 11 - - - - - - - 6.6 1016.6 0.0
04/07:00am WSW 8 12 - - - - - - - 6.2 1016.3 0.0
04/06:30am WSW 9 15 - - - - - - - 6.5 1015.9 0.0
04/06:00am W 9 15 - - - - - - - 6.9 1015.6 0.0
04/05:30am WSW 9 14 - - - - - - - 7.1 1015.5 0.0
04/05:00am W 12 18 - - - - - - - 7.3 1015.5 0.0
04/04:30am WSW 8 13 - - - - - - - 6.9 1015.7 0.0
04/04:00am WSW 8 15 - - - - - - - 7.2 1015.8 0.0
04/03:30am WSW 6 9 - - - - - - - 7.1 1015.6 0.0
04/03:00am W 10 15 - - - - - - - 7.6 1015.8 0.0
04/02:30am W 8 12 - - - - - - - 7.7 1016.1 0.0
04/02:00am W 7 12 - - - - - - - 7.6 1016.0 0.0
04/01:30am W 5 7 - - - - - - - 7.1 1015.9 0.0
04/01:00am W 6 8 - - - - - - - 7.5 1015.9 0.0
04/12:30am WSW 6 8 - - - - - - - 6.9 1015.8 0.0
04/12:00am WSW 4 5 - - - - - - - 6.9 1016.0 0.0
 
Date/Time
EST
Wind Sea
Height
m
Swell Vis
km
Cloud Weather Temp
°C
Press
hPa
Rain since
9am
mm
Dir  Spd
kts
Gust
kts
Height
m
Period
s
Dir
03/11:30pm WSW 5 6 - - - - - - - 6.8 1015.8 0.0
03/11:00pm WSW 5 7 - - - - - - - 6.8 1015.8 0.0
03/10:30pm SW 4 5 - - - - - - - 7.2 1015.6 0.0
03/10:00pm WSW 6 8 - - - - - - - 7.6 1015.5 0.0
03/09:30pm WSW 7 9 - - - - - - - 8.0 1015.5 0.0
03/09:00pm WSW 8 10 - - - - - - - 8.2 1015.1 0.0
03/08:30pm WSW 7 10 - - - - - - - 8.3 1015.0 0.0
03/08:00pm WSW 8 11 - - - - - - - 8.2 1014.9 0.0
03/07:30pm WSW 6 8 - - - - - - - 7.6 1014.8 0.0
03/07:00pm SW 6 9 - - - - - - - 8.2 1014.6 0.0
03/06:30pm WSW 7 9 - - - - - - - 8.4 1014.2 0.0
03/06:00pm WSW 7 10 - - - - - - - 8.6 1013.8 0.0
03/05:30pm WSW 6 9 - - - - - - - 8.8 1013.6 0.0
03/05:00pm WSW 7 12 - - - - - - - 9.2 1013.3 0.0
03/04:30pm WSW 8 13 - - - - - - - 9.5 1013.0 0.0
03/04:00pm WSW 10 15 - - - - - - - 9.7 1012.7 0.0
03/03:30pm W 13 17 - - - - - - - 10.0 1012.5 0.0
03/03:00pm W 14 20 - - - - - - - 10.2 1012.3 0.0
03/02:30pm W 14 20 - - - - - - - 10.5 1012.3 0.0
03/02:00pm W 15 21 - - - - - - - 10.6 1012.1 0.0
03/01:30pm WNW 16 23 - - - - - - - 10.7 1012.2 0.0
03/01:00pm WNW 16 23 - - - - - - - 11.2 1012.1 0.0
03/12:30pm W 16 23 - - - - - - - 11.1 1012.1 0.0
03/12:05pm W 18 28 - - - - - - - 11.4 1012.1 0.0
03/12:00pm W 18 25 - - - - - - - 11.6 1012.2 0.0
03/11:49am W 18 28 - - - - - - - 11.6 1012.4 0.0
03/11:30am WNW 17 25 - - - - - - - 11.6 1012.3 0.0
03/11:00am WNW 15 21 - - - - - - - 11.6 1012.5 0.0
03/10:30am W 18 23 - - - - - - - 10.7 1012.7 0.0
03/10:00am W 17 23 - - - - - - - 10.4 1012.7 0.0
03/09:30am W 17 23 - - - - - - - 10.3 1012.5 0.0
03/09:00am W 15 21 - - - - - - - 9.5 1012.2 0.0
03/08:30am W 15 20 - - - - - - - 9.4 1012.0 0.0
03/08:00am W 16 22 - - - - - - - 9.4 1011.9 0.0
03/07:30am W 17 23 - - - - - - - 9.3 1011.7 0.0
03/07:00am W 15 22 - - - - - - - 9.4 1011.4 0.0
03/06:30am W 16 21 - - - - - - - 9.1 1011.0 0.0
03/06:00am W 15 23 - - - - - - - 8.9 1010.8 0.0
03/05:30am W 14 20 - - - - - - - 8.7 1010.8 0.0
03/05:00am W 12 18 - - - - - - - 8.2 1010.7 0.0
03/04:46am WNW 17 29 - - - - - - - 9.1 1010.6 0.0
03/04:30am WNW 13 20 - - - - - - - 9.9 1010.3 0.0
03/04:00am W 12 18 - - - - - - - 9.3 1010.5 0.0
03/03:30am W 16 28 - - - - - - - 8.7 1010.8 0.0
03/03:26am WNW 16 28 - - - - - - - 9.6 1010.7 0.0
03/03:00am WNW 14 18 - - - - - - - 9.5 1010.8 0.0
03/02:30am WNW 16 23 - - - - - - - 9.6 1010.9 0.0
03/02:00am W 16 24 - - - - - - - 9.4 1010.9 0.0
03/01:53am WNW 18 24 - - - - - - - 10.3 1010.8 0.0
03/01:30am NW 20 27 - - - - - - - 10.6 1010.5 0.0
03/01:00am NW 21 26 - - - - - - - 10.6 1010.5 0.0
03/12:30am NW 19 26 - - - - - - - 10.2 1010.9 0.0
03/12:00am NW 18 26 - - - - - - - 9.6 1011.0 0.0
 
Date/Time
EST
Wind Sea
Height
m
Swell Vis
km
Cloud Weather Temp
°C
Press
hPa
Rain since
9am
mm
Dir  Spd
kts
Gust
kts
Height
m
Period
s
Dir
02/11:30pm WNW 23 33 - - - - - - - 9.6 1011.2 0.0
02/11:16pm WNW 16 28 - - - - - - - 10.6 1011.0 0.0
02/11:00pm WNW 21 37 - - - - - - - 9.1 1011.0 0.0
02/10:56pm WNW 26 38 - - - - - - - 9.2 1011.2 0.0
02/10:51pm WNW 22 38 - - - - - - - 10.3 1010.6 0.0
02/10:48pm WNW 18 36 - - - - - - - 11.4 1010.7 0.0
02/10:30pm WNW 18 24 - - - - - - - 11.5 1010.7 0.0
02/10:00pm WNW 19 27 - - - - - - - 11.5 1010.7 0.0
02/09:30pm W 15 25 - - - - - - - 11.2 1010.7 0.0
02/09:28pm W 15 25 - - - - - - - 11.2 1010.6 0.0
02/09:00pm WNW 17 26 - - - - - - - 11.3 1010.4 0.0
02/08:30pm WNW 17 24 - - - - - - - 11.1 1010.2 0.0
02/08:00pm W 20 31 - - - - - - - 10.4 1009.6 0.0
02/07:43pm WNW 20 31 - - - - - - - 11.9 1009.3 0.0
02/07:30pm WNW 18 26 - - - - - - - 11.6 1009.3 0.0
02/07:00pm WNW 21 31 - - - - - - - 11.5 1009.1 0.0
02/06:30pm WNW 17 24 - - - - - - - 11.2 1008.9 0.0
02/06:16pm WNW 18 29 - - - - - - - 10.6 1008.7 0.0
02/06:00pm WNW 20 28 - - - - - - - 12.1 1008.6 0.0
02/05:33pm WNW 22 33 - - - - - - - 12.0 1008.0 0.0
02/05:30pm WNW 23 33 - - - - - - - 12.1 1007.9 0.0
02/05:12pm WNW 20 30 - - - - - - - 12.1 1007.6 0.0
02/05:00pm WNW 21 28 - - - - - - - 12.0 1007.6 0.0
02/04:30pm WNW 23 35 - - - - - - - 12.0 1007.3 0.0
02/04:28pm WNW 22 35 - - - - - - - 12.2 1007.2 0.0
02/04:00pm WNW 22 31 - - - - - - - 11.3 1007.0 0.0
02/03:57pm WNW 21 31 - - - - - - - 11.3 1007.0 0.0
02/03:30pm WNW 23 32 - - - - - - - 12.4 1006.4 0.0
02/03:16pm WNW 20 30 - - - - - - - 12.8 1006.4 0.0
02/03:00pm WNW 24 31 - - - - - - - 12.8 1006.2 0.0
02/02:30pm WNW 22 30 - - - - - - - 12.7 1005.8 0.0
02/02:11pm WNW 20 30 - - - - - - - 12.7 1005.6 0.0
02/02:00pm WNW 21 30 - - - - - - - 12.9 1005.7 0.0
02/01:30pm WNW 24 30 - - - - - - - 12.4 1005.2 0.0
02/01:15pm WNW 20 31 - - - - - - - 13.3 1005.0 0.0
02/01:00pm WNW 19 28 - - - - - - - 12.5 1005.1 0.0
02/12:30pm WNW 24 33 - - - - - - - 11.3 1004.8 0.0
02/12:23pm WNW 22 33 - - - - - - - 11.5 1004.8 0.0
02/12:00pm WNW 21 31 - - - - - - - 13.1 1004.6 0.0

Other formats

Comma delimited format used in spreadsheet applications
http://www.bom.gov.au/fwo/IDT60701/IDT60701.95985.axf

JavaScript Object Notation format (JSON) in row-major order
http://www.bom.gov.au/fwo/IDT60701/IDT60701.95985.json

Data quality

Most of these data are generated automatically and are frequently updated. Quality checks on data are not normally performed. It is possible for incorrect values to appear. Refer to information at About Latest Weather Observations and please check the disclaimer before using these data.